Time;durP1;ratioP1;P1;durP2;ratioP2;P2;SDS_P1;SDS_P2;PMS_P1;PMS_P2;Temp;Humidity;BMP_temperature;BMP_pressure;BME280_temperature;BME280_humidity;BME280_pressure;Samples;Min_cycle;Max_cycle;Signal;HPM_P1;HPM_P2
2023/01/05 00:02:17;;;;;;;51.70;7.20;;;10.00;99.90;;;;;;4987807;28;20044;-70
2023/01/05 00:04:44;;;;;;;35.78;4.63;;;10.10;99.90;;;;;;5004036;28;20045;-73
2023/01/05 00:07:10;;;;;;;56.75;7.38;;;10.10;99.90;;;;;;4990473;28;20073;-70
2023/01/05 00:09:37;;;;;;;47.92;6.78;;;10.00;99.90;;;;;;4987004;28;20123;-72
2023/01/05 00:23:03;;;;;;;61.60;7.88;;;10.20;99.90;;;;;;4994885;28;20056;-71
2023/01/05 00:25:31;;;;;;;56.53;7.43;;;10.10;99.90;;;;;;4988662;28;20473;-70
2023/01/05 00:27:57;;;;;;;48.28;6.78;;;10.00;99.90;;;;;;4988281;28;20046;-76
2023/01/05 00:30:33;;;;;;;40.47;5.13;;;10.00;99.90;;;;;;4990094;28;20042;-72
2023/01/05 00:32:58;;;;;;;45.88;6.50;;;10.10;99.90;;;;;;4966241;28;20042;-72
2023/01/05 00:35:24;;;;;;;50.03;6.72;;;10.00;99.90;;;;;;5003362;28;20057;-70
2023/01/05 00:37:50;;;;;;;47.72;7.78;;;10.00;99.90;;;;;;4987220;28;20346;-70
2023/01/05 00:40:18;;;;;;;52.38;6.18;;;10.00;99.90;;;;;;4986585;28;20042;-72
2023/01/05 00:42:44;;;;;;;45.13;4.82;;;10.00;99.90;;;;;;4986980;28;20050;-70
2023/01/05 00:45:12;;;;;;;60.25;6.82;;;10.00;99.90;;;;;;5003170;28;20056;-68
2023/01/05 00:47:38;;;;;;;55.00;6.43;;;10.10;99.90;;;;;;5004566;28;20054;-71
2023/01/05 00:50:05;;;;;;;75.22;9.68;;;10.00;99.90;;;;;;4986963;28;20037;-73
2023/01/05 00:52:30;;;;;;;58.28;8.05;;;10.00;99.90;;;;;;4986421;28;20121;-70
2023/01/05 00:54:56;;;;;;;51.92;6.95;;;10.00;99.90;;;;;;4989840;28;20124;-68
2023/01/05 00:57:21;;;;;;;47.95;5.97;;;10.00;99.90;;;;;;5005829;28;20309;-67
2023/01/05 00:59:47;;;;;;;53.20;6.25;;;9.90;99.90;;;;;;4983197;28;22119;-68
2023/01/05 01:02:13;;;;;;;52.15;7.20;;;9.90;99.90;;;;;;5002741;28;20037;-71
2023/01/05 01:04:39;;;;;;;57.50;8.75;;;10.00;99.90;;;;;;4988260;28;20034;-75
2023/01/05 01:07:05;;;;;;;49.35;6.38;;;9.90;99.90;;;;;;4987592;28;20088;-72
2023/01/05 01:09:31;;;;;;;63.65;8.38;;;9.90;99.90;;;;;;4986003;28;20447;-70
2023/01/05 01:11:56;;;;;;;54.50;6.40;;;9.90;99.90;;;;;;5004186;28;20121;-70
2023/01/05 01:14:22;;;;;;;42.63;6.60;;;9.80;99.90;;;;;;4988351;28;20279;-72
2023/01/05 01:16:48;;;;;;;59.97;6.65;;;9.90;99.90;;;;;;4986176;28;20103;-72
2023/01/05 01:19:16;;;;;;;59.90;8.20;;;10.00;99.90;;;;;;4987534;28;20671;-70
2023/01/05 01:21:42;;;;;;;37.60;4.28;;;9.90;99.90;;;;;;4986680;28;20050;-72
2023/01/05 01:24:13;;;;;;;43.35;6.38;;;10.00;99.90;;;;;;4984147;28;20052;-69
2023/01/05 01:26:39;;;;;;;44.58;5.53;;;10.00;99.90;;;;;;4982655;28;20030;-71
2023/01/05 01:29:04;;;;;;;48.40;7.20;;;10.00;99.90;;;;;;4982423;28;20378;-71
2023/01/05 01:31:30;;;;;;;46.85;6.15;;;10.00;99.90;;;;;;4979885;28;20132;-69
2023/01/05 01:33:55;;;;;;;50.15;4.93;;;10.10;99.90;;;;;;4987345;28;20046;-70
2023/01/05 01:36:21;;;;;;;47.72;5.97;;;10.10;99.90;;;;;;5005254;28;20416;-73
2023/01/05 01:38:47;;;;;;;31.45;3.88;;;10.10;99.90;;;;;;5006677;28;20041;-72
2023/01/05 01:41:12;;;;;;;39.20;4.90;;;10.10;99.90;;;;;;4987622;28;20171;-75
2023/01/05 01:43:47;;;;;;;39.45;5.30;;;10.10;99.90;;;;;;5003686;28;20080;-70
2023/01/05 01:46:15;;;;;;;36.55;4.78;;;10.20;99.90;;;;;;4985003;28;20488;-70
2023/01/05 01:48:47;;;;;;;29.45;5.07;;;10.20;99.90;;;;;;4987064;28;20081;-67
2023/01/05 01:51:19;;;;;;;24.17;4.78;;;10.20;99.90;;;;;;4983691;28;20042;-66
2023/01/05 01:53:48;;;;;;;42.88;5.40;;;10.20;99.90;;;;;;5000836;28;20485;-70
2023/01/05 01:56:17;;;;;;;29.10;4.10;;;10.20;99.90;;;;;;4982306;28;20041;-66
2023/01/05 01:58:43;;;;;;;33.28;4.63;;;10.30;99.90;;;;;;5001388;28;20038;-70
2023/01/05 02:01:10;;;;;;;43.83;5.35;;;10.20;99.90;;;;;;4982628;28;20370;-70
2023/01/05 02:03:36;;;;;;;44.85;5.82;;;10.30;99.90;;;;;;4995230;28;20041;-71
2023/01/05 02:06:02;;;;;;;45.17;6.47;;;10.20;99.90;;;;;;5002685;28;20046;-71
2023/01/05 02:08:30;;;;;;;45.03;6.70;;;10.10;99.90;;;;;;4998579;28;20099;-71
2023/01/05 02:11:33;;;;;;;26.17;3.33;;;10.10;99.90;;;;;;4984982;28;20042;-71
2023/01/05 02:14:25;;;;;;;33.53;5.40;;;10.30;99.90;;;;;;4981966;28;20069;-71
2023/01/05 02:17:07;;;;;;;33.50;4.43;;;10.20;99.90;;;;;;4999777;28;20782;-70
2023/01/05 02:20:21;;;;;;;28.33;4.20;;;10.30;99.90;;;;;;5000556;28;20046;-72
2023/01/05 02:23:07;;;;;;;34.67;4.65;;;10.20;99.90;;;;;;4985971;28;20081;-69
2023/01/05 02:25:36;;;;;;;37.92;4.93;;;10.30;99.90;;;;;;5000091;28;20050;-71
2023/01/05 02:28:21;;;;;;;43.28;6.15;;;10.20;99.90;;;;;;4984577;28;20369;-70
2023/01/05 02:31:22;;;;;;;39.58;4.05;;;10.20;99.90;;;;;;4987706;28;20045;-71
2023/01/05 02:34:17;;;;;;;43.03;5.95;;;10.20;99.90;;;;;;5003968;28;20050;-73
2023/01/05 02:37:01;;;;;;;36.67;5.13;;;10.20;99.90;;;;;;4980779;28;20050;-68
2023/01/05 02:39:46;;;;;;;43.72;4.55;;;10.20;99.90;;;;;;4990212;28;20045;-73
2023/01/05 02:42:21;;;;;;;34.50;4.75;;;10.20;99.90;;;;;;4988654;28;20073;-72
2023/01/05 02:44:47;;;;;;;44.03;5.10;;;10.20;99.90;;;;;;4986978;28;20070;-69
2023/01/05 02:47:24;;;;;;;32.47;4.32;;;10.20;99.90;;;;;;4990461;28;20064;-71
2023/01/05 02:50:14;;;;;;;30.30;4.65;;;10.20;99.90;;;;;;4987321;28;20049;-70
2023/01/05 02:52:53;;;;;;;32.58;5.13;;;10.20;99.90;;;;;;5001996;28;20030;-69
2023/01/05 02:55:23;;;;;;;41.47;5.65;;;10.20;99.90;;;;;;4985280;28;21451;-75
2023/01/05 02:57:58;;;;;;;35.92;5.53;;;10.20;99.90;;;;;;4986564;28;20046;-69
2023/01/05 03:00:54;;;;;;;41.30;5.78;;;10.20;99.90;;;;;;4981848;28;20054;-69
2023/01/05 03:03:30;;;;;;;38.67;4.50;;;10.10;99.90;;;;;;4988280;28;20046;-67
2023/01/05 03:06:06;;;;;;;35.10;4.88;;;10.10;99.90;;;;;;4984096;28;20042;-69
2023/01/05 03:08:36;;;;;;;29.75;4.85;;;10.20;99.90;;;;;;4988826;28;20126;-69
2023/01/05 03:14:15;;;;;;;39.55;5.47;;;10.20;99.90;;;;;;4989218;28;20041;-69
2023/01/05 03:16:44;;;;;;;39.55;4.55;;;10.20;99.90;;;;;;5005686;28;20085;-72
2023/01/05 03:35:58;;;;;;;28.77;4.50;;;10.20;99.90;;;;;;4986881;28;20104;-69
2023/01/05 03:38:40;;;;;;;21.48;3.47;;;10.20;99.90;;;;;;4986981;28;20037;-69
2023/01/05 03:41:09;;;;;;;32.63;4.75;;;10.30;99.90;;;;;;5001364;28;20042;-70
2023/01/05 03:43:35;;;;;;;23.65;3.90;;;10.20;99.90;;;;;;4988068;28;20041;-72
2023/01/05 03:46:13;;;;;;;34.95;4.63;;;10.30;99.90;;;;;;4985404;28;20076;-68
2023/01/05 03:48:39;;;;;;;29.15;3.72;;;10.30;99.90;;;;;;4987444;28;20046;-70
2023/01/05 03:51:05;;;;;;;32.25;4.07;;;10.30;99.90;;;;;;4987034;28;20107;-71
2023/01/05 03:53:31;;;;;;;29.83;3.38;;;10.30;99.90;;;;;;4988846;28;20404;-70
2023/01/05 03:55:56;;;;;;;29.98;4.78;;;10.40;99.90;;;;;;4987286;28;20034;-69
2023/01/05 03:58:22;;;;;;;36.17;4.88;;;10.30;99.90;;;;;;4987438;28;20400;-71
2023/01/05 04:00:47;;;;;;;33.90;3.88;;;10.30;99.90;;;;;;4988575;28;20049;-71
2023/01/05 04:03:13;;;;;;;42.30;5.50;;;10.30;99.90;;;;;;4998575;28;20072;-70
2023/01/05 04:05:39;;;;;;;31.35;4.03;;;10.30;99.90;;;;;;4989359;28;20038;-68
2023/01/05 04:08:05;;;;;;;23.52;3.47;;;10.30;99.90;;;;;;4984954;28;20029;-69
2023/01/05 04:10:31;;;;;;;38.10;4.50;;;10.40;99.90;;;;;;5002508;28;20555;-72
2023/01/05 04:12:56;;;;;;;23.90;3.88;;;10.30;99.90;;;;;;4967518;28;20037;-69
2023/01/05 04:15:22;;;;;;;29.10;4.68;;;10.30;99.90;;;;;;4988258;28;20080;-71
2023/01/05 04:17:47;;;;;;;27.40;3.70;;;10.30;99.90;;;;;;4987144;28;20042;-74
2023/01/05 04:20:13;;;;;;;25.92;4.05;;;10.30;99.90;;;;;;5004693;28;20096;-73
2023/01/05 04:22:39;;;;;;;28.02;3.63;;;10.40;99.90;;;;;;4982224;28;20042;-69
2023/01/05 04:25:05;;;;;;;35.15;4.40;;;10.40;99.90;;;;;;4987021;28;20046;-70
2023/01/05 04:27:31;;;;;;;28.00;3.88;;;10.40;99.90;;;;;;4984951;28;20042;-71
2023/01/05 04:29:56;;;;;;;24.35;4.65;;;10.40;99.90;;;;;;4989457;28;20572;-71
2023/01/05 04:32:22;;;;;;;30.60;5.55;;;10.40;99.90;;;;;;5000820;28;20033;-72
2023/01/05 04:34:47;;;;;;;44.17;4.25;;;10.30;99.90;;;;;;4988383;28;20073;-75
2023/01/05 04:37:13;;;;;;;41.45;4.53;;;10.30;99.90;;;;;;5001880;28;20483;-69
2023/01/05 04:39:39;;;;;;;28.80;4.55;;;10.20;99.90;;;;;;4989271;28;20132;-72
2023/01/05 04:42:04;;;;;;;33.08;4.53;;;10.20;99.90;;;;;;5001821;28;20523;-71
2023/01/05 04:44:30;;;;;;;31.67;4.30;;;10.20;99.90;;;;;;4987000;28;20049;-75
2023/01/05 04:46:55;;;;;;;35.47;4.85;;;10.30;99.90;;;;;;4986904;28;20125;-71
2023/01/05 04:49:21;;;;;;;32.28;4.22;;;10.20;99.90;;;;;;4987560;28;20030;-69
2023/01/05 04:51:46;;;;;;;22.48;4.05;;;10.20;99.90;;;;;;4984287;28;20092;-69
2023/01/05 04:54:12;;;;;;;30.23;5.07;;;10.20;99.90;;;;;;5002629;28;20038;-68
2023/01/05 04:56:38;;;;;;;20.60;3.75;;;10.20;99.90;;;;;;5001188;28;20132;-71
2023/01/05 04:59:03;;;;;;;36.47;4.50;;;10.20;99.90;;;;;;4967309;28;20038;-70
2023/01/05 05:01:29;;;;;;;44.20;6.43;;;10.20;99.90;;;;;;4986198;28;20065;-69
2023/01/05 05:03:55;;;;;;;27.17;3.63;;;10.10;99.90;;;;;;4986573;28;20618;-71
2023/01/05 05:06:20;;;;;;;29.15;3.67;;;10.20;99.90;;;;;;4984202;28;20096;-69
2023/01/05 05:08:46;;;;;;;35.15;5.00;;;10.10;99.90;;;;;;4985734;28;20042;-69
2023/01/05 05:11:12;;;;;;;32.63;4.38;;;10.20;99.90;;;;;;4984619;28;20040;-73
2023/01/05 05:13:37;;;;;;;39.35;5.50;;;10.10;99.90;;;;;;4986682;28;20568;-69
2023/01/05 05:16:03;;;;;;;37.70;5.38;;;10.10;99.90;;;;;;4984773;28;20398;-71
2023/01/05 05:18:28;;;;;;;36.38;5.60;;;10.10;99.90;;;;;;4983541;28;20282;-70
2023/01/05 05:20:54;;;;;;;30.60;4.35;;;10.10;99.90;;;;;;5001509;28;20049;-70
2023/01/05 05:23:20;;;;;;;32.90;4.18;;;10.20;99.90;;;;;;4985443;28;20038;-72
2023/01/05 05:25:51;;;;;;;41.15;5.10;;;10.10;99.90;;;;;;4985338;28;20041;-71
2023/01/05 05:28:18;;;;;;;41.58;5.10;;;10.20;99.90;;;;;;4985091;28;20045;-68
2023/01/05 05:30:43;;;;;;;28.63;5.05;;;10.10;99.90;;;;;;4986262;28;20456;-69
2023/01/05 05:33:09;;;;;;;46.35;5.60;;;10.10;99.90;;;;;;5001195;28;20036;-67
2023/01/05 05:35:35;;;;;;;31.70;4.50;;;10.20;99.90;;;;;;4985177;28;20133;-71
2023/01/05 05:38:00;;;;;;;35.85;5.18;;;10.10;99.90;;;;;;4983905;28;21781;-70
2023/01/05 05:40:27;;;;;;;28.77;3.80;;;10.10;99.90;;;;;;4984917;28;20064;-70
2023/01/05 05:42:53;;;;;;;33.58;5.30;;;10.20;99.90;;;;;;4986903;28;20049;-70
2023/01/05 05:45:19;;;;;;;36.75;4.97;;;10.20;99.90;;;;;;4985315;28;20121;-69
2023/01/05 05:47:44;;;;;;;35.33;4.93;;;10.10;99.90;;;;;;4984062;28;20132;-68
2023/01/05 05:50:10;;;;;;;35.17;4.60;;;10.10;99.90;;;;;;5000211;28;20268;-72
2023/01/05 05:52:35;;;;;;;39.58;5.85;;;10.10;99.90;;;;;;4984989;28;20084;-72
2023/01/05 05:55:01;;;;;;;37.35;5.03;;;10.10;99.90;;;;;;4985137;28;20030;-66
2023/01/05 05:57:26;;;;;;;30.92;4.68;;;10.10;99.90;;;;;;4987400;28;20045;-68
2023/01/05 05:59:52;;;;;;;34.83;5.18;;;10.10;99.90;;;;;;5002494;28;20041;-69
2023/01/05 06:02:18;;;;;;;48.63;5.55;;;10.10;99.90;;;;;;4982423;28;20041;-70
2023/01/05 06:04:44;;;;;;;36.70;4.90;;;10.10;99.90;;;;;;4997744;28;20152;-70
2023/01/05 06:07:10;;;;;;;40.22;4.90;;;10.20;99.90;;;;;;4968397;28;20033;-70
2023/01/05 06:09:35;;;;;;;33.40;4.13;;;10.20;99.90;;;;;;4984394;28;20034;-71
2023/01/05 06:12:01;;;;;;;43.13;6.22;;;10.10;99.90;;;;;;4980767;28;20534;-70
2023/01/05 06:14:27;;;;;;;39.08;4.75;;;10.10;99.90;;;;;;4982339;28;20042;-68
2023/01/05 06:16:52;;;;;;;39.90;4.55;;;10.10;99.90;;;;;;4981057;28;20056;-68
2023/01/05 06:19:18;;;;;;;32.78;4.28;;;10.10;99.90;;;;;;4982807;28;20038;-74
2023/01/05 06:21:43;;;;;;;43.58;4.93;;;10.10;99.90;;;;;;4985724;28;20041;-67
2023/01/05 06:24:09;;;;;;;40.53;5.63;;;10.10;99.90;;;;;;4986764;28;20048;-69
2023/01/05 06:26:34;;;;;;;36.05;4.90;;;10.10;99.90;;;;;;4982135;28;20054;-74
2023/01/05 06:29:00;;;;;;;35.35;3.75;;;10.10;99.90;;;;;;4983017;28;20048;-72
2023/01/05 06:31:26;;;;;;;36.05;4.90;;;10.10;99.90;;;;;;5000980;28;20484;-70
2023/01/05 06:33:52;;;;;;;32.38;4.05;;;10.10;99.90;;;;;;4980408;28;20030;-68
2023/01/05 06:36:17;;;;;;;26.20;4.07;;;10.20;99.90;;;;;;4985769;28;20044;-75
2023/01/05 06:38:43;;;;;;;38.80;4.60;;;10.20;99.90;;;;;;4987345;28;20124;-72
2023/01/05 06:41:09;;;;;;;32.33;4.00;;;10.20;99.90;;;;;;4983528;28;20046;-71
2023/01/05 06:43:34;;;;;;;45.72;6.38;;;10.20;99.90;;;;;;4986040;28;20046;-68
2023/01/05 06:46:00;;;;;;;37.45;5.03;;;10.10;99.90;;;;;;4997556;28;20045;-74
2023/01/05 06:48:26;;;;;;;30.73;4.28;;;10.10;99.90;;;;;;4966322;28;20469;-71
2023/01/05 06:50:51;;;;;;;32.05;5.35;;;10.20;99.90;;;;;;4983492;28;20048;-66
2023/01/05 06:53:17;;;;;;;37.60;4.75;;;10.10;99.90;;;;;;4983091;28;20041;-66
2023/01/05 06:55:44;;;;;;;35.83;4.32;;;10.10;99.90;;;;;;4983258;28;20053;-68
2023/01/05 06:58:10;;;;;;;24.77;4.18;;;10.20;99.90;;;;;;4994844;28;20043;-73
2023/01/05 07:00:35;;;;;;;40.40;4.70;;;10.10;99.90;;;;;;5001178;28;20064;-68
2023/01/05 07:03:01;;;;;;;24.33;4.75;;;10.10;99.90;;;;;;4982895;28;20034;-66
2023/01/05 07:05:27;;;;;;;41.35;5.25;;;10.10;99.90;;;;;;4981245;28;20042;-69
2023/01/05 07:07:53;;;;;;;38.50;5.10;;;10.00;99.90;;;;;;4983902;28;20469;-67
2023/01/05 07:10:19;;;;;;;34.83;4.95;;;10.00;99.90;;;;;;4981945;28;20387;-69
2023/01/05 07:12:45;;;;;;;34.08;5.05;;;10.00;99.90;;;;;;4980812;28;20046;-68
2023/01/05 07:15:10;;;;;;;35.03;4.78;;;10.00;99.90;;;;;;4989756;28;20034;-67
2023/01/05 07:17:36;;;;;;;31.00;4.20;;;10.00;99.90;;;;;;5004516;28;20073;-71
2023/01/05 07:20:03;;;;;;;27.20;3.65;;;10.00;99.90;;;;;;4987409;28;20045;-70
2023/01/05 07:22:29;;;;;;;40.75;5.70;;;10.00;99.90;;;;;;4984802;28;20057;-67
2023/01/05 07:24:57;;;;;;;37.95;5.65;;;10.00;99.90;;;;;;4991534;28;20038;-71
2023/01/05 07:27:23;;;;;;;29.88;4.18;;;9.90;99.90;;;;;;5007375;28;20407;-71
2023/01/05 07:29:48;;;;;;;37.58;5.22;;;9.90;99.90;;;;;;4987830;28;20124;-68
2023/01/05 07:32:14;;;;;;;45.05;5.30;;;9.90;99.90;;;;;;4992060;28;20053;-68
2023/01/05 07:34:39;;;;;;;38.45;5.25;;;9.90;99.90;;;;;;4994862;28;20038;-70
2023/01/05 07:37:05;;;;;;;36.45;4.68;;;9.80;99.90;;;;;;5002357;28;20057;-74
2023/01/05 07:39:31;;;;;;;38.03;4.35;;;9.80;99.90;;;;;;5006069;28;20100;-70
2023/01/05 07:41:56;;;;;;;42.90;5.28;;;9.80;99.90;;;;;;4989598;28;20516;-70
2023/01/05 07:44:22;;;;;;;42.33;5.75;;;9.80;99.90;;;;;;5008983;28;20311;-67
2023/01/05 07:46:47;;;;;;;36.47;4.10;;;9.80;99.90;;;;;;4988080;28;20405;-68
2023/01/05 07:49:14;;;;;;;42.95;6.63;;;9.70;99.90;;;;;;5007398;28;20465;-71
2023/01/05 07:51:39;;;;;;;28.45;4.68;;;9.80;99.90;;;;;;4991025;28;20052;-70
2023/01/05 07:54:05;;;;;;;20.90;3.88;;;9.80;99.90;;;;;;4991269;28;20033;-71
2023/01/05 07:56:31;;;;;;;37.95;5.03;;;9.80;99.90;;;;;;4991567;28;20042;-67
2023/01/05 07:58:56;;;;;;;36.08;4.20;;;9.90;99.90;;;;;;4992649;28;20054;-70
2023/01/05 08:01:22;;;;;;;46.92;6.10;;;9.80;99.90;;;;;;4994546;28;20033;-68
2023/01/05 08:03:48;;;;;;;31.55;4.28;;;9.80;99.90;;;;;;4989110;28;20088;-68
2023/01/05 08:06:16;;;;;;;41.60;5.22;;;9.90;99.90;;;;;;4989388;28;20046;-70
2023/01/05 08:08:42;;;;;;;38.22;4.70;;;9.90;99.90;;;;;;4988529;28;20624;-68
2023/01/05 08:11:10;;;;;;;28.83;3.92;;;9.90;99.90;;;;;;4987016;28;20033;-69
2023/01/05 08:16:21;;;;;;;30.98;5.28;;;9.90;99.90;;;;;;4985615;28;20134;-69
2023/01/05 08:18:46;;;;;;;40.28;5.80;;;10.00;99.90;;;;;;4986638;28;20053;-71
2023/01/05 08:21:13;;;;;;;28.83;4.38;;;9.90;99.90;;;;;;4987578;28;20046;-67
2023/01/05 08:23:38;;;;;;;46.67;5.45;;;10.00;99.90;;;;;;5010592;28;20108;-72
2023/01/05 08:26:12;;;;;;;32.47;3.90;;;10.00;99.90;;;;;;4992191;28;20065;-68
2023/01/05 08:28:38;;;;;;;43.45;5.35;;;10.00;99.90;;;;;;4988998;28;20074;-71
2023/01/05 08:31:07;;;;;;;34.35;3.80;;;10.00;99.90;;;;;;5005098;28;20414;-75
2023/01/05 08:33:33;;;;;;;34.88;4.57;;;10.00;99.90;;;;;;4993481;28;20044;-68
2023/01/05 08:35:58;;;;;;;41.47;5.57;;;10.00;99.90;;;;;;4987931;28;20408;-67
2023/01/05 08:38:25;;;;;;;36.13;5.28;;;10.00;99.90;;;;;;5009336;28;20113;-69
2023/01/05 08:40:50;;;;;;;34.13;4.43;;;9.90;99.90;;;;;;5007505;28;20473;-71
2023/01/05 08:43:16;;;;;;;37.50;4.90;;;9.90;99.90;;;;;;4991061;28;20049;-68
2023/01/05 08:45:42;;;;;;;37.28;4.78;;;9.90;99.90;;;;;;4990850;28;20056;-69
2023/01/05 08:48:10;;;;;;;30.90;3.88;;;9.90;99.90;;;;;;5000665;28;20496;-69
2023/01/05 08:50:37;;;;;;;38.78;4.78;;;9.90;99.90;;;;;;4986883;28;20042;-68
2023/01/05 08:53:03;;;;;;;41.38;4.47;;;9.90;99.90;;;;;;4990709;28;20120;-67
2023/01/05 08:55:28;;;;;;;36.53;5.88;;;9.90;99.90;;;;;;4991369;28;20050;-68
2023/01/05 08:57:55;;;;;;;40.45;4.90;;;9.90;99.90;;;;;;4992476;28;20056;-71
2023/01/05 09:00:21;;;;;;;32.80;4.82;;;10.00;99.90;;;;;;4984779;28;20378;-67
2023/01/05 09:02:47;;;;;;;23.75;3.83;;;10.00;99.90;;;;;;4991322;28;20052;-66
2023/01/05 09:05:13;;;;;;;34.63;4.38;;;10.00;99.90;;;;;;4991944;28;20073;-67
2023/01/05 09:07:38;;;;;;;37.65;4.90;;;10.10;99.90;;;;;;5009411;28;20113;-67
2023/01/05 09:10:06;;;;;;;54.20;5.82;;;10.00;99.90;;;;;;4991001;28;20072;-66
2023/01/05 09:12:34;;;;;;;38.55;5.63;;;10.00;99.90;;;;;;4988072;28;21751;-67
2023/01/05 09:15:00;;;;;;;41.80;5.53;;;10.10;99.90;;;;;;5003285;28;20038;-65
2023/01/05 09:17:25;;;;;;;31.35;4.90;;;10.10;99.90;;;;;;5006020;28;20044;-69
2023/01/05 09:19:51;;;;;;;44.90;5.68;;;10.10;99.90;;;;;;4990539;28;20074;-67
2023/01/05 09:22:16;;;;;;;36.42;5.10;;;10.10;99.90;;;;;;5006010;28;20041;-67
2023/01/05 09:24:42;;;;;;;45.25;5.80;;;10.10;99.90;;;;;;5004964;28;20037;-69
2023/01/05 09:27:08;;;;;;;42.05;4.13;;;10.10;99.90;;;;;;4996277;28;20068;-68
2023/01/05 09:29:33;;;;;;;42.45;6.05;;;10.10;99.90;;;;;;4990565;28;20057;-66
2023/01/05 09:31:59;;;;;;;28.55;4.30;;;10.10;99.90;;;;;;4986982;28;20133;-67
2023/01/05 09:34:25;;;;;;;31.95;4.80;;;10.20;99.90;;;;;;4990555;28;20037;-68
2023/01/05 09:36:50;;;;;;;40.58;6.85;;;10.10;99.90;;;;;;4989295;28;20511;-68
2023/01/05 09:39:16;;;;;;;42.22;5.88;;;10.20;99.90;;;;;;4989037;28;20042;-67
2023/01/05 09:41:49;;;;;;;34.72;5.00;;;10.10;99.90;;;;;;4989468;28;20469;-67
2023/01/05 09:44:39;;;;;;;40.65;5.18;;;10.10;99.90;;;;;;5006361;28;20616;-67
2023/01/05 09:47:40;;;;;;;34.90;5.10;;;10.20;99.90;;;;;;5000939;28;20038;-71
2023/01/05 09:50:15;;;;;;;32.72;5.82;;;10.20;99.90;;;;;;4986448;28;20041;-66
2023/01/05 09:52:41;;;;;;;45.75;5.85;;;10.20;99.90;;;;;;4987835;28;20049;-66
2023/01/05 09:55:18;;;;;;;35.38;5.22;;;10.20;99.90;;;;;;4990151;28;20370;-69
2023/01/05 09:57:52;;;;;;;34.10;5.10;;;10.30;99.90;;;;;;5004702;28;20045;-67
2023/01/05 10:00:20;;;;;;;29.10;5.45;;;10.20;99.90;;;;;;5004354;28;20034;-67
2023/01/05 10:02:47;;;;;;;37.90;6.78;;;10.20;99.90;;;;;;5003984;28;20046;-66
2023/01/05 10:05:14;;;;;;;37.28;5.82;;;10.20;99.90;;;;;;5005798;28;20048;-66
2023/01/05 10:07:45;;;;;;;45.17;5.20;;;10.20;99.90;;;;;;4990386;28;20416;-68
2023/01/05 10:10:41;;;;;;;40.90;5.87;;;10.20;99.90;;;;;;4972339;28;20061;-67
2023/01/05 10:13:10;;;;;;;35.00;5.30;;;10.20;99.90;;;;;;5000996;28;20057;-67
2023/01/05 10:15:41;;;;;;;38.17;5.38;;;10.20;99.90;;;;;;4989583;28;21142;-65
2023/01/05 10:18:17;;;;;;;33.08;4.80;;;10.30;99.90;;;;;;4972411;28;20377;-69
2023/01/05 10:21:04;;;;;;;34.88;4.97;;;10.30;99.90;;;;;;4998465;28;20046;-67
2023/01/05 10:23:54;;;;;;;35.15;5.10;;;10.40;99.90;;;;;;4991033;28;20046;-70
2023/01/05 10:26:40;;;;;;;35.78;5.20;;;10.40;99.90;;;;;;5008481;28;20126;-70
2023/01/05 10:29:09;;;;;;;40.17;5.28;;;10.40;99.90;;;;;;4971929;28;20049;-70
2023/01/05 10:32:12;;;;;;;34.53;5.28;;;10.40;99.90;;;;;;4988355;28;20096;-67
2023/01/05 10:34:38;;;;;;;;;;;10.40;99.90;;;;;;4988778;28;20050;-67
2023/01/05 10:37:21;;;;;;;35.40;5.38;;;10.40;99.90;;;;;;4985126;28;19917;-67
2023/01/05 10:40:12;;;;;;;34.60;5.30;;;10.40;99.90;;;;;;5009046;28;20500;-66
2023/01/05 10:42:56;;;;;;;31.15;4.70;;;10.40;99.90;;;;;;4998035;28;20057;-65
2023/01/05 10:45:24;;;;;;;36.95;5.28;;;10.40;99.90;;;;;;4990608;28;20042;-65
2023/01/05 10:47:49;;;;;;;32.97;4.35;;;10.40;99.90;;;;;;4990772;28;20060;-66
2023/01/05 10:50:33;;;;;;;28.27;4.68;;;10.40;99.90;;;;;;4988872;28;20034;-68
2023/01/05 10:53:07;;;;;;;27.60;4.00;;;10.50;99.90;;;;;;4985171;28;20041;-66
2023/01/05 10:55:43;;;;;;;36.35;5.10;;;10.50;99.90;;;;;;4993425;28;20038;-67
2023/01/05 10:58:32;;;;;;;32.63;4.60;;;10.50;99.90;;;;;;4975368;28;20046;-67
2023/01/05 11:01:02;;;;;;;39.63;5.30;;;10.60;99.90;;;;;;4995249;28;20049;-66
2023/01/05 11:03:43;;;;;;;34.35;4.75;;;10.60;99.90;;;;;;4994328;28;20396;-67
2023/01/05 11:06:20;;;;;;;33.55;5.30;;;10.50;99.90;;;;;;5012298;28;20050;-68
2023/01/05 11:08:46;;;;;;;41.60;5.32;;;10.60;99.90;;;;;;4995780;28;20373;-67
2023/01/05 11:11:21;;;;;;;35.60;5.45;;;10.50;99.90;;;;;;4991942;28;20044;-66
2023/01/05 11:13:48;;;;;;;37.88;4.88;;;10.60;99.90;;;;;;4991749;28;20113;-66
2023/01/05 11:16:19;;;;;;;36.67;5.20;;;10.50;99.90;;;;;;5013170;28;20504;-66
2023/01/05 11:19:00;;;;;;;42.42;5.75;;;10.50;99.90;;;;;;4993912;28;20050;-69
2023/01/05 11:21:47;;;;;;;40.67;5.13;;;10.50;99.90;;;;;;4993129;28;20042;-67
2023/01/05 11:24:33;;;;;;;38.03;4.93;;;10.50;99.90;;;;;;4986935;28;20054;-66
2023/01/05 11:27:22;;;;;;;28.88;4.18;;;10.50;99.90;;;;;;5008151;28;20042;-66
2023/01/05 11:30:15;;;;;;;40.35;5.70;;;10.50;99.90;;;;;;5008752;28;20045;-66
2023/01/05 11:32:42;;;;;;;27.98;3.92;;;10.60;99.90;;;;;;4984526;28;20053;-69
2023/01/05 11:35:29;;;;;;;38.42;5.35;;;10.50;99.90;;;;;;4991630;28;20079;-67
2023/01/05 11:37:56;;;;;;;30.30;4.70;;;10.60;99.90;;;;;;4989913;28;20046;-68
2023/01/05 11:40:26;;;;;;;39.28;5.43;;;10.50;99.90;;;;;;4991323;28;20082;-69
2023/01/05 11:42:52;;;;;;;26.75;4.43;;;10.50;99.90;;;;;;4990364;28;20393;-68
2023/01/05 11:45:19;;;;;;;37.70;4.65;;;10.50;99.90;;;;;;4992652;28;20369;-68
2023/01/05 11:47:55;;;;;;;27.92;4.80;;;10.50;99.90;;;;;;4993424;28;20136;-70
2023/01/05 11:50:24;;;;;;;46.55;5.45;;;10.40;99.90;;;;;;4993692;28;20138;-68
2023/01/05 11:52:52;;;;;;;35.60;5.25;;;10.40;99.90;;;;;;4991290;28;20115;-66
2023/01/05 11:55:31;;;;;;;31.55;4.75;;;10.40;99.90;;;;;;5007292;28;20127;-66
2023/01/05 11:58:19;;;;;;;42.10;5.25;;;10.30;99.90;;;;;;4992478;28;20407;-70
2023/01/05 12:01:15;;;;;;;32.70;5.15;;;10.30;99.90;;;;;;4993133;28;20128;-68
2023/01/05 12:04:14;;;;;;;33.72;5.25;;;10.30;99.90;;;;;;4989751;28;20097;-69
2023/01/05 12:07:01;;;;;;;42.35;7.32;;;10.20;99.90;;;;;;4989340;28;20477;-67
2023/01/05 12:09:30;;;;;;;38.35;6.43;;;10.10;99.90;;;;;;4989910;28;20064;-67
2023/01/05 12:12:24;;;;;;;43.10;5.93;;;10.10;99.90;;;;;;4967689;28;20093;-66
2023/01/05 12:15:05;;;;;;;42.63;5.55;;;10.10;99.90;;;;;;4984704;28;20444;-67
2023/01/05 12:17:50;;;;;;;38.47;6.57;;;10.00;99.90;;;;;;4987777;28;20814;-67
2023/01/05 12:20:46;;;;;;;46.13;6.05;;;10.10;99.90;;;;;;5007158;28;20104;-67
2023/01/05 12:23:32;;;;;;;47.83;6.10;;;10.10;99.90;;;;;;5003930;28;20493;-71
2023/01/05 12:26:13;;;;;;;44.05;6.65;;;10.10;99.90;;;;;;4988506;28;20057;-70
2023/01/05 12:29:02;;;;;;;46.53;5.90;;;10.00;99.90;;;;;;4992539;28;20042;-67
2023/01/05 12:31:52;;;;;;;40.47;5.72;;;10.10;99.90;;;;;;4978326;28;20311;-66
2023/01/05 12:34:36;;;;;;;48.70;6.00;;;10.10;99.90;;;;;;4993915;28;20519;-69
2023/01/05 12:37:15;;;;;;;39.10;5.72;;;10.20;99.90;;;;;;4992105;28;20045;-68
2023/01/05 12:40:07;;;;;;;45.13;6.32;;;10.20;99.90;;;;;;4973063;28;20073;-71
2023/01/05 12:42:49;;;;;;;39.25;6.00;;;10.20;99.90;;;;;;4987475;28;20048;-68
2023/01/05 12:45:21;;;;;;;43.75;6.55;;;10.30;99.90;;;;;;4985671;28;20802;-70
2023/01/05 12:48:15;;;;;;;43.60;6.15;;;10.30;99.90;;;;;;4985195;28;20085;-68
2023/01/05 12:50:46;;;;;;;51.65;7.00;;;10.20;99.90;;;;;;4983735;28;20389;-72
2023/01/05 12:53:24;;;;;;;50.08;7.20;;;10.20;99.90;;;;;;4979903;28;20046;-66
2023/01/05 12:55:55;;;;;;;47.05;6.53;;;10.40;99.90;;;;;;4982674;28;20104;-67
2023/01/05 12:58:34;;;;;;;58.88;7.25;;;10.40;99.90;;;;;;4988552;28;20049;-68
2023/01/05 13:01:03;;;;;;;37.63;6.15;;;10.40;99.90;;;;;;5000678;28;20064;-67
2023/01/05 13:03:43;;;;;;;33.42;5.40;;;10.30;99.90;;;;;;4987735;28;20104;-67
2023/01/05 13:06:25;;;;;;;43.75;6.32;;;10.40;99.90;;;;;;4985024;28;20140;-68
2023/01/05 13:08:52;;;;;;;45.75;6.40;;;10.30;99.90;;;;;;4988137;28;20425;-69
2023/01/05 13:11:35;;;;;;;43.55;5.60;;;10.30;99.90;;;;;;4988035;28;20046;-68
2023/01/05 13:14:21;;;;;;;43.35;5.88;;;10.20;99.90;;;;;;5004679;28;21363;-71
2023/01/05 13:16:57;;;;;;;36.70;5.60;;;10.30;99.90;;;;;;5000987;28;20489;-73
2023/01/05 13:19:34;;;;;;;42.35;5.55;;;10.30;99.90;;;;;;4988754;28;20391;-68
2023/01/05 13:22:28;;;;;;;40.50;6.95;;;10.30;99.90;;;;;;4987332;28;20523;-68
2023/01/05 13:25:26;;;;;;;49.45;6.38;;;10.20;99.90;;;;;;4998751;28;20061;-68
2023/01/05 13:27:51;;;;;;;43.75;5.97;;;10.20;99.90;;;;;;4987394;28;20068;-68
2023/01/05 13:30:48;;;;;;;47.53;5.85;;;10.30;99.90;;;;;;5001186;28;20477;-68
2023/01/05 13:33:36;;;;;;;52.22;5.75;;;10.30;99.90;;;;;;4983977;28;20046;-68